Kodiak, AK

8:28 PM AKST on January 28, 2015 (GMT -0900)
Pillar Mountain | Change Station
CLOSE
Current Station
Personal Weather Station
Location: Kodiak, AK
Elevation: 1204 ft
Nearby Weather Stations

Elev 1204 ft 57.79 °N, 152.44 °W | Updated 10 minutes ago

Light Rain
Light Rain
31.3 °F
Feels Like 21 °F
N
13.5
Wind Variable Wind from North

Today
High -- | Low -- °F
--% Chance of Precip.
Yesterday
High -- | Low -- °F
Precip. -- in
9:20 AM 5:25 PM
Waxing Gibbous, 71% visible
Pressure 29.84 in
Visibility 10.0 miles
Clouds Mostly Cloudy 1400 ft
Overcast 2500 ft
Windchill 21 °F
Dew Point 30 °F
Humidity 96%
Rainfall 0.18 in
Snow Depth Not available.
UV 0 out of 12
Pollen Not available.
Air Quality Not available.
Flu Activity Not available.
METAR PADQ 290453Z 33007KT 10SM -RA BKN014 OVC025 03/01 A2983 RMK AO2 SLP103 P0000 T00280006 $

More Conditions Fewer Conditions

Pressure 29.84 in
Visibility 10.0 miles
Clouds Mostly Cloudy 1400 ft
Overcast 2500 ft
Windchill 21 °F
Dew Point 30 °F
Humidity 96%
Rainfall 0.18 in
Snow Depth Not available.
UV 0 out of 12
Pollen Not available.
Air Quality Not available.
Flu Activity Not available.
METAR PADQ 290453Z 33007KT 10SM -RA BKN014 OVC025 03/01 A2983 RMK AO2 SLP103 P0000 T00280006 $

More Conditions Fewer Conditions

10-Day Weather Forecast

Almanac

Astronomy

Jan. 28, 2015 Rise Set
Actual Time
Civil Twilight
Nautical Twilight
Astronomical Twilight
Moon
Length of Visible Light
Length of Day
Tomorrow will be .
, % of the Moon is Illuminated

Today's Extremes

State Highs State Lows

Community

WunderPhotos

Upload Photos

1,791,359 photos uploaded!

WunderBlogs® & News

Nearby

Air Quality

  Air Quality AQ Index Pollutant
Not available.

Snow Depth

Station Depth Elevation

Earthquake Activity

City Distance Mag. Time & Date
Minimum magnitude displayed is 2.5.

Coastal Water Temperatures

Place Temperature

Nearby Weather Stations